sensor_id;sensor_type;location;lat;lon;timestamp;P1;P2;P0
69123;PMS5003;56232;53.384;-2.732;2023-02-05T00:01:31;5;4;
69123;PMS5003;56232;53.384;-2.732;2023-02-05T00:03:57;3;2;
69123;PMS5003;56232;53.384;-2.732;2023-02-05T00:06:23;6;4;
69123;PMS5003;56232;53.384;-2.732;2023-02-05T00:08:48;8;2;
69123;PMS5003;56232;53.384;-2.732;2023-02-05T00:11:14;4;4;
69123;PMS5003;56232;53.384;-2.732;2023-02-05T00:13:46;3;3;
69123;PMS5003;56232;53.384;-2.732;2023-02-05T00:16:06;3;3;
69123;PMS5003;56232;53.384;-2.732;2023-02-05T00:18:31;4;4;
69123;PMS5003;56232;53.384;-2.732;2023-02-05T00:20:57;5;3;
69123;PMS5003;56232;53.384;-2.732;2023-02-05T00:23:23;6;5;
69123;PMS5003;56232;53.384;-2.732;2023-02-05T00:25:49;6;5;
69123;PMS5003;56232;53.384;-2.732;2023-02-05T00:28:14;9;6;
69123;PMS5003;56232;53.384;-2.732;2023-02-05T00:30:44;9;7;
69123;PMS5003;56232;53.384;-2.732;2023-02-05T00:33:04;5;4;
69123;PMS5003;56232;53.384;-2.732;2023-02-05T00:35:30;2;2;
69123;PMS5003;56232;53.384;-2.732;2023-02-05T00:37:55;5;4;
69123;PMS5003;56232;53.384;-2.732;2023-02-05T00:40:21;4;4;
69123;PMS5003;56232;53.384;-2.732;2023-02-05T00:42:46;6;4;
69123;PMS5003;56232;53.384;-2.732;2023-02-05T00:45:12;6;3;
69123;PMS5003;56232;53.384;-2.732;2023-02-05T00:47:37;8;5;
69123;PMS5003;56232;53.384;-2.732;2023-02-05T00:50:03;6;5;
69123;PMS5003;56232;53.384;-2.732;2023-02-05T00:52:28;10;6;
69123;PMS5003;56232;53.384;-2.732;2023-02-05T00:54:53;5;4;
69123;PMS5003;56232;53.384;-2.732;2023-02-05T00:57:19;5;3;
69123;PMS5003;56232;53.384;-2.732;2023-02-05T00:59:45;7;6;
69123;PMS5003;56232;53.384;-2.732;2023-02-05T01:02:16;5;4;
69123;PMS5003;56232;53.384;-2.732;2023-02-05T01:04:36;4;4;
69123;PMS5003;56232;53.384;-2.732;2023-02-05T01:07:02;4;4;
69123;PMS5003;56232;53.384;-2.732;2023-02-05T01:09:28;9;5;
69123;PMS5003;56232;53.384;-2.732;2023-02-05T01:11:54;6;4;
69123;PMS5003;56232;53.384;-2.732;2023-02-05T01:14:19;4;3;
69123;PMS5003;56232;53.384;-2.732;2023-02-05T01:16:45;13;5;
69123;PMS5003;56232;53.384;-2.732;2023-02-05T01:19:11;7;5;
69123;PMS5003;56232;53.384;-2.732;2023-02-05T01:21:36;8;7;
69123;PMS5003;56232;53.384;-2.732;2023-02-05T01:24:01;4;3;
69123;PMS5003;56232;53.384;-2.732;2023-02-05T01:26:27;6;4;
69123;PMS5003;56232;53.384;-2.732;2023-02-05T01:28:52;8;7;
69123;PMS5003;56232;53.384;-2.732;2023-02-05T01:31:18;8;6;
69123;PMS5003;56232;53.384;-2.732;2023-02-05T01:33:43;4;3;
69123;PMS5003;56232;53.384;-2.732;2023-02-05T01:36:08;6;6;
69123;PMS5003;56232;53.384;-2.732;2023-02-05T01:38:33;14;7;
69123;PMS5003;56232;53.384;-2.732;2023-02-05T01:40:58;7;5;
69123;PMS5003;56232;53.384;-2.732;2023-02-05T01:43:25;6;4;
69123;PMS5003;56232;53.384;-2.732;2023-02-05T01:45:56;6;5;
69123;PMS5003;56232;53.384;-2.732;2023-02-05T01:48:22;5;3;
69123;PMS5003;56232;53.384;-2.732;2023-02-05T01:50:42;5;5;
69123;PMS5003;56232;53.384;-2.732;2023-02-05T01:53:14;5;4;
69123;PMS5003;56232;53.384;-2.732;2023-02-05T01:55:33;4;4;
69123;PMS5003;56232;53.384;-2.732;2023-02-05T01:57:58;3;3;
69123;PMS5003;56232;53.384;-2.732;2023-02-05T02:00:29;5;4;
69123;PMS5003;56232;53.384;-2.732;2023-02-05T02:02:49;5;4;
69123;PMS5003;56232;53.384;-2.732;2023-02-05T02:05:15;2;2;
69123;PMS5003;56232;53.384;-2.732;2023-02-05T02:07:40;4;2;
69123;PMS5003;56232;53.384;-2.732;2023-02-05T02:10:06;4;4;
69123;PMS5003;56232;53.384;-2.732;2023-02-05T02:12:32;3;3;
69123;PMS5003;56232;53.384;-2.732;2023-02-05T02:14:58;5;3;
69123;PMS5003;56232;53.384;-2.732;2023-02-05T02:17:23;7;5;
69123;PMS5003;56232;53.384;-2.732;2023-02-05T02:19:49;5;4;
69123;PMS5003;56232;53.384;-2.732;2023-02-05T02:27:13;4;4;
69123;PMS5003;56232;53.384;-2.732;2023-02-05T02:29:33;7;5;
69123;PMS5003;56232;53.384;-2.732;2023-02-05T02:31:58;7;4;
69123;PMS5003;56232;53.384;-2.732;2023-02-05T02:34:29;3;2;
69123;PMS5003;56232;53.384;-2.732;2023-02-05T02:36:50;4;3;
69123;PMS5003;56232;53.384;-2.732;2023-02-05T02:39:17;4;2;
69123;PMS5003;56232;53.384;-2.732;2023-02-05T02:41:39;4;3;
69123;PMS5003;56232;53.384;-2.732;2023-02-05T02:44:05;5;4;
69123;PMS5003;56232;53.384;-2.732;2023-02-05T02:46:31;6;3;
69123;PMS5003;56232;53.384;-2.732;2023-02-05T02:48:55;6;3;
69123;PMS5003;56232;53.384;-2.732;2023-02-05T02:51:20;7;5;
69123;PMS5003;56232;53.384;-2.732;2023-02-05T02:53:47;4;3;
69123;PMS5003;56232;53.384;-2.732;2023-02-05T02:56:11;4;4;
69123;PMS5003;56232;53.384;-2.732;2023-02-05T02:58:37;3;2;
69123;PMS5003;56232;53.384;-2.732;2023-02-05T03:01:02;6;4;
69123;PMS5003;56232;53.384;-2.732;2023-02-05T03:03:27;4;3;
69123;PMS5003;56232;53.384;-2.732;2023-02-05T03:05:53;5;2;
69123;PMS5003;56232;53.384;-2.732;2023-02-05T03:08:19;9;4;
69123;PMS5003;56232;53.384;-2.732;2023-02-05T03:10:45;4;4;
69123;PMS5003;56232;53.384;-2.732;2023-02-05T03:13:10;6;5;
69123;PMS5003;56232;53.384;-2.732;2023-02-05T03:15:35;5;4;
69123;PMS5003;56232;53.384;-2.732;2023-02-05T03:18:00;6;4;
69123;PMS5003;56232;53.384;-2.732;2023-02-05T03:20:28;2;1;
69123;PMS5003;56232;53.384;-2.732;2023-02-05T03:22:52;9;6;
69123;PMS5003;56232;53.384;-2.732;2023-02-05T03:25:18;7;4;
69123;PMS5003;56232;53.384;-2.732;2023-02-05T03:27:43;5;4;
69123;PMS5003;56232;53.384;-2.732;2023-02-05T03:30:08;4;3;
69123;PMS5003;56232;53.384;-2.732;2023-02-05T03:32:38;5;5;
69123;PMS5003;56232;53.384;-2.732;2023-02-05T03:35:01;5;4;
69123;PMS5003;56232;53.384;-2.732;2023-02-05T03:37:27;10;7;
69123;PMS5003;56232;53.384;-2.732;2023-02-05T03:39:53;6;5;
69123;PMS5003;56232;53.384;-2.732;2023-02-05T03:42:19;8;5;
69123;PMS5003;56232;53.384;-2.732;2023-02-05T03:44:47;4;3;
69123;PMS5003;56232;53.384;-2.732;2023-02-05T03:47:09;8;6;
69123;PMS5003;56232;53.384;-2.732;2023-02-05T03:49:36;6;3;
69123;PMS5003;56232;53.384;-2.732;2023-02-05T03:52:00;6;4;
69123;PMS5003;56232;53.384;-2.732;2023-02-05T03:54:26;6;6;
69123;PMS5003;56232;53.384;-2.732;2023-02-05T03:56:51;6;4;
69123;PMS5003;56232;53.384;-2.732;2023-02-05T03:59:16;3;3;
69123;PMS5003;56232;53.384;-2.732;2023-02-05T04:01:42;6;3;
69123;PMS5003;56232;53.384;-2.732;2023-02-05T04:04:08;3;2;
69123;PMS5003;56232;53.384;-2.732;2023-02-05T04:06:33;3;2;
69123;PMS5003;56232;53.384;-2.732;2023-02-05T04:08:58;7;5;
69123;PMS5003;56232;53.384;-2.732;2023-02-05T04:11:24;5;5;
69123;PMS5003;56232;53.384;-2.732;2023-02-05T04:13:50;5;4;
69123;PMS5003;56232;53.384;-2.732;2023-02-05T04:16:15;4;3;
69123;PMS5003;56232;53.384;-2.732;2023-02-05T04:18:41;8;6;
69123;PMS5003;56232;53.384;-2.732;2023-02-05T04:21:07;6;3;
69123;PMS5003;56232;53.384;-2.732;2023-02-05T04:23:33;7;4;
69123;PMS5003;56232;53.384;-2.732;2023-02-05T04:25:58;4;4;
69123;PMS5003;56232;53.384;-2.732;2023-02-05T04:28:24;9;4;
69123;PMS5003;56232;53.384;-2.732;2023-02-05T04:30:50;5;4;
69123;PMS5003;56232;53.384;-2.732;2023-02-05T04:33:16;6;5;
69123;PMS5003;56232;53.384;-2.732;2023-02-05T04:35:41;4;3;
69123;PMS5003;56232;53.384;-2.732;2023-02-05T04:38:06;5;4;
69123;PMS5003;56232;53.384;-2.732;2023-02-05T04:40:32;6;6;
69123;PMS5003;56232;53.384;-2.732;2023-02-05T04:42:58;6;5;
69123;PMS5003;56232;53.384;-2.732;2023-02-05T04:45:23;6;5;
69123;PMS5003;56232;53.384;-2.732;2023-02-05T04:47:53;7;5;
69123;PMS5003;56232;53.384;-2.732;2023-02-05T04:50:14;6;4;
69123;PMS5003;56232;53.384;-2.732;2023-02-05T04:52:40;8;7;
69123;PMS5003;56232;53.384;-2.732;2023-02-05T04:55:05;9;6;
69123;PMS5003;56232;53.384;-2.732;2023-02-05T04:57:30;14;7;
69123;PMS5003;56232;53.384;-2.732;2023-02-05T05:00:01;6;5;
69123;PMS5003;56232;53.384;-2.732;2023-02-05T05:02:21;5;5;
69123;PMS5003;56232;53.384;-2.732;2023-02-05T05:04:46;5;4;
69123;PMS5003;56232;53.384;-2.732;2023-02-05T05:07:11;5;4;
69123;PMS5003;56232;53.384;-2.732;2023-02-05T05:09:37;6;4;
69123;PMS5003;56232;53.384;-2.732;2023-02-05T05:12:03;7;6;
69123;PMS5003;56232;53.384;-2.732;2023-02-05T05:14:28;5;5;
69123;PMS5003;56232;53.384;-2.732;2023-02-05T05:16:53;10;6;
69123;PMS5003;56232;53.384;-2.732;2023-02-05T05:19:19;7;5;
69123;PMS5003;56232;53.384;-2.732;2023-02-05T05:21:45;6;5;
69123;PMS5003;56232;53.384;-2.732;2023-02-05T05:24:10;8;8;
69123;PMS5003;56232;53.384;-2.732;2023-02-05T05:26:35;7;6;
69123;PMS5003;56232;53.384;-2.732;2023-02-05T05:29:01;8;7;
69123;PMS5003;56232;53.384;-2.732;2023-02-05T05:31:27;8;7;
69123;PMS5003;56232;53.384;-2.732;2023-02-05T05:33:51;6;5;
69123;PMS5003;56232;53.384;-2.732;2023-02-05T05:36:17;13;7;
69123;PMS5003;56232;53.384;-2.732;2023-02-05T05:38:42;10;6;
69123;PMS5003;56232;53.384;-2.732;2023-02-05T05:41:08;7;6;
69123;PMS5003;56232;53.384;-2.732;2023-02-05T05:43:33;11;5;
69123;PMS5003;56232;53.384;-2.732;2023-02-05T05:45:59;6;6;
69123;PMS5003;56232;53.384;-2.732;2023-02-05T05:48:24;7;5;
69123;PMS5003;56232;53.384;-2.732;2023-02-05T05:50:49;8;5;
69123;PMS5003;56232;53.384;-2.732;2023-02-05T05:53:15;6;4;
69123;PMS5003;56232;53.384;-2.732;2023-02-05T05:55:40;7;6;
69123;PMS5003;56232;53.384;-2.732;2023-02-05T05:58:06;13;12;
69123;PMS5003;56232;53.384;-2.732;2023-02-05T06:00:31;16;11;
69123;PMS5003;56232;53.384;-2.732;2023-02-05T06:02:57;17;14;
69123;PMS5003;56232;53.384;-2.732;2023-02-05T06:05:22;13;10;
69123;PMS5003;56232;53.384;-2.732;2023-02-05T06:07:48;15;10;
69123;PMS5003;56232;53.384;-2.732;2023-02-05T06:10:13;6;5;
69123;PMS5003;56232;53.384;-2.732;2023-02-05T06:12:38;6;4;
69123;PMS5003;56232;53.384;-2.732;2023-02-05T06:15:09;6;5;
69123;PMS5003;56232;53.384;-2.732;2023-02-05T06:17:29;5;3;
69123;PMS5003;56232;53.384;-2.732;2023-02-05T06:19:55;5;4;
69123;PMS5003;56232;53.384;-2.732;2023-02-05T06:22:21;5;5;
69123;PMS5003;56232;53.384;-2.732;2023-02-05T06:24:46;6;3;
69123;PMS5003;56232;53.384;-2.732;2023-02-05T06:27:12;5;5;
69123;PMS5003;56232;53.384;-2.732;2023-02-05T06:29:38;14;6;
69123;PMS5003;56232;53.384;-2.732;2023-02-05T06:32:03;10;5;
69123;PMS5003;56232;53.384;-2.732;2023-02-05T06:34:28;6;5;
69123;PMS5003;56232;53.384;-2.732;2023-02-05T06:36:54;5;4;
69123;PMS5003;56232;53.384;-2.732;2023-02-05T06:39:19;4;3;
69123;PMS5003;56232;53.384;-2.732;2023-02-05T06:41:45;5;4;
69123;PMS5003;56232;53.384;-2.732;2023-02-05T06:44:10;4;2;
69123;PMS5003;56232;53.384;-2.732;2023-02-05T06:46:36;7;6;
69123;PMS5003;56232;53.384;-2.732;2023-02-05T06:49:01;5;4;
69123;PMS5003;56232;53.384;-2.732;2023-02-05T06:51:27;5;5;
69123;PMS5003;56232;53.384;-2.732;2023-02-05T06:53:53;4;4;
69123;PMS5003;56232;53.384;-2.732;2023-02-05T06:56:18;3;3;
69123;PMS5003;56232;53.384;-2.732;2023-02-05T06:58:43;4;2;
69123;PMS5003;56232;53.384;-2.732;2023-02-05T07:01:09;4;4;
69123;PMS5003;56232;53.384;-2.732;2023-02-05T07:03:34;3;3;
69123;PMS5003;56232;53.384;-2.732;2023-02-05T07:06:00;6;3;
69123;PMS5003;56232;53.384;-2.732;2023-02-05T07:08:27;4;3;
69123;PMS5003;56232;53.384;-2.732;2023-02-05T07:10:51;4;3;
69123;PMS5003;56232;53.384;-2.732;2023-02-05T07:13:16;4;3;
69123;PMS5003;56232;53.384;-2.732;2023-02-05T07:15:42;6;5;
69123;PMS5003;56232;53.384;-2.732;2023-02-05T07:18:08;6;5;
69123;PMS5003;56232;53.384;-2.732;2023-02-05T07:20:33;5;5;
69123;PMS5003;56232;53.384;-2.732;2023-02-05T07:22:59;6;6;
69123;PMS5003;56232;53.384;-2.732;2023-02-05T07:25:25;4;3;
69123;PMS5003;56232;53.384;-2.732;2023-02-05T07:27:50;9;5;
69123;PMS5003;56232;53.384;-2.732;2023-02-05T07:30:16;9;9;
69123;PMS5003;56232;53.384;-2.732;2023-02-05T07:32:42;9;9;
69123;PMS5003;56232;53.384;-2.732;2023-02-05T07:35:13;5;4;
69123;PMS5003;56232;53.384;-2.732;2023-02-05T07:37:33;11;7;
69123;PMS5003;56232;53.384;-2.732;2023-02-05T07:39:59;10;9;
69123;PMS5003;56232;53.384;-2.732;2023-02-05T07:42:25;7;5;
69123;PMS5003;56232;53.384;-2.732;2023-02-05T07:44:51;5;5;
69123;PMS5003;56232;53.384;-2.732;2023-02-05T07:47:16;4;4;
69123;PMS5003;56232;53.384;-2.732;2023-02-05T07:49:42;5;4;
69123;PMS5003;56232;53.384;-2.732;2023-02-05T07:52:07;4;4;
69123;PMS5003;56232;53.384;-2.732;2023-02-05T07:54:32;6;5;
69123;PMS5003;56232;53.384;-2.732;2023-02-05T07:56:58;11;9;
69123;PMS5003;56232;53.384;-2.732;2023-02-05T07:59:24;12;10;
69123;PMS5003;56232;53.384;-2.732;2023-02-05T08:01:49;7;5;
69123;PMS5003;56232;53.384;-2.732;2023-02-05T08:04:14;8;6;
69123;PMS5003;56232;53.384;-2.732;2023-02-05T08:06:40;13;10;
69123;PMS5003;56232;53.384;-2.732;2023-02-05T08:09:05;9;9;
69123;PMS5003;56232;53.384;-2.732;2023-02-05T08:11:30;8;6;
69123;PMS5003;56232;53.384;-2.732;2023-02-05T08:13:55;7;6;
69123;PMS5003;56232;53.384;-2.732;2023-02-05T08:16:21;9;6;
69123;PMS5003;56232;53.384;-2.732;2023-02-05T08:18:47;11;9;
69123;PMS5003;56232;53.384;-2.732;2023-02-05T08:21:12;7;7;
69123;PMS5003;56232;53.384;-2.732;2023-02-05T08:23:37;9;7;
69123;PMS5003;56232;53.384;-2.732;2023-02-05T08:26:03;21;17;
69123;PMS5003;56232;53.384;-2.732;2023-02-05T08:28:29;14;12;
69123;PMS5003;56232;53.384;-2.732;2023-02-05T08:30:54;12;11;
69123;PMS5003;56232;53.384;-2.732;2023-02-05T08:33:20;12;10;
69123;PMS5003;56232;53.384;-2.732;2023-02-05T08:35:45;12;11;
69123;PMS5003;56232;53.384;-2.732;2023-02-05T08:38:11;12;11;
69123;PMS5003;56232;53.384;-2.732;2023-02-05T08:40:36;14;12;
69123;PMS5003;56232;53.384;-2.732;2023-02-05T08:43:02;15;14;
69123;PMS5003;56232;53.384;-2.732;2023-02-05T08:45:28;19;14;
69123;PMS5003;56232;53.384;-2.732;2023-02-05T08:47:53;23;18;
69123;PMS5003;56232;53.384;-2.732;2023-02-05T08:50:19;20;19;
69123;PMS5003;56232;53.384;-2.732;2023-02-05T08:52:44;29;24;
69123;PMS5003;56232;53.384;-2.732;2023-02-05T08:55:09;20;19;
69123;PMS5003;56232;53.384;-2.732;2023-02-05T08:57:35;25;21;
69123;PMS5003;56232;53.384;-2.732;2023-02-05T09:00:00;23;21;
69123;PMS5003;56232;53.384;-2.732;2023-02-05T09:02:26;25;21;
69123;PMS5003;56232;53.384;-2.732;2023-02-05T09:04:50;16;16;
69123;PMS5003;56232;53.384;-2.732;2023-02-05T09:07:16;20;17;
69123;PMS5003;56232;53.384;-2.732;2023-02-05T09:09:41;26;26;
69123;PMS5003;56232;53.384;-2.732;2023-02-05T09:12:07;24;18;
69123;PMS5003;56232;53.384;-2.732;2023-02-05T09:14:33;19;16;
69123;PMS5003;56232;53.384;-2.732;2023-02-05T09:16:59;21;18;
69123;PMS5003;56232;53.384;-2.732;2023-02-05T09:19:24;22;17;
69123;PMS5003;56232;53.384;-2.732;2023-02-05T09:21:50;18;14;
69123;PMS5003;56232;53.384;-2.732;2023-02-05T09:24:15;13;9;
69123;PMS5003;56232;53.384;-2.732;2023-02-05T09:26:40;17;12;
69123;PMS5003;56232;53.384;-2.732;2023-02-05T09:29:06;9;8;
69123;PMS5003;56232;53.384;-2.732;2023-02-05T09:31:31;13;8;
69123;PMS5003;56232;53.384;-2.732;2023-02-05T09:33:57;8;6;
69123;PMS5003;56232;53.384;-2.732;2023-02-05T09:36:23;8;6;
69123;PMS5003;56232;53.384;-2.732;2023-02-05T09:38:48;9;7;
69123;PMS5003;56232;53.384;-2.732;2023-02-05T09:41:22;7;7;
69123;PMS5003;56232;53.384;-2.732;2023-02-05T09:43:42;7;6;
69123;PMS5003;56232;53.384;-2.732;2023-02-05T09:46:08;8;7;
69123;PMS5003;56232;53.384;-2.732;2023-02-05T09:48:35;10;7;
69123;PMS5003;56232;53.384;-2.732;2023-02-05T09:50:56;7;7;
69123;PMS5003;56232;53.384;-2.732;2023-02-05T09:53:22;10;8;
69123;PMS5003;56232;53.384;-2.732;2023-02-05T09:55:48;6;5;
69123;PMS5003;56232;53.384;-2.732;2023-02-05T09:58:15;6;3;
69123;PMS5003;56232;53.384;-2.732;2023-02-05T10:00:42;11;8;
69123;PMS5003;56232;53.384;-2.732;2023-02-05T10:03:06;8;6;
69123;PMS5003;56232;53.384;-2.732;2023-02-05T10:05:31;5;4;
69123;PMS5003;56232;53.384;-2.732;2023-02-05T10:07:57;6;4;
69123;PMS5003;56232;53.384;-2.732;2023-02-05T10:10:22;8;5;
69123;PMS5003;56232;53.384;-2.732;2023-02-05T10:12:51;6;5;
69123;PMS5003;56232;53.384;-2.732;2023-02-05T10:15:16;9;6;
69123;PMS5003;56232;53.384;-2.732;2023-02-05T10:17:42;5;4;
69123;PMS5003;56232;53.384;-2.732;2023-02-05T10:20:12;9;6;
69123;PMS5003;56232;53.384;-2.732;2023-02-05T10:22:32;3;3;
69123;PMS5003;56232;53.384;-2.732;2023-02-05T10:24:59;5;4;
69123;PMS5003;56232;53.384;-2.732;2023-02-05T10:27:21;5;4;
69123;PMS5003;56232;53.384;-2.732;2023-02-05T10:29:47;9;7;
69123;PMS5003;56232;53.384;-2.732;2023-02-05T10:32:15;4;4;
69123;PMS5003;56232;53.384;-2.732;2023-02-05T10:34:41;4;4;
69123;PMS5003;56232;53.384;-2.732;2023-02-05T10:37:03;3;3;
69123;PMS5003;56232;53.384;-2.732;2023-02-05T10:39:28;6;5;
69123;PMS5003;56232;53.384;-2.732;2023-02-05T10:41:55;7;4;
69123;PMS5003;56232;53.384;-2.732;2023-02-05T10:44:22;6;5;
69123;PMS5003;56232;53.384;-2.732;2023-02-05T10:46:45;9;5;
69123;PMS5003;56232;53.384;-2.732;2023-02-05T10:49:12;5;4;
69123;PMS5003;56232;53.384;-2.732;2023-02-05T10:51:38;4;3;
69123;PMS5003;56232;53.384;-2.732;2023-02-05T10:54:03;4;4;
69123;PMS5003;56232;53.384;-2.732;2023-02-05T10:56:28;6;5;
69123;PMS5003;56232;53.384;-2.732;2023-02-05T10:58:54;7;6;
69123;PMS5003;56232;53.384;-2.732;2023-02-05T11:01:20;9;8;
69123;PMS5003;56232;53.384;-2.732;2023-02-05T11:03:48;9;8;
69123;PMS5003;56232;53.384;-2.732;2023-02-05T11:06:11;10;8;
69123;PMS5003;56232;53.384;-2.732;2023-02-05T11:08:37;8;6;
69123;PMS5003;56232;53.384;-2.732;2023-02-05T11:11:03;8;7;
69123;PMS5003;56232;53.384;-2.732;2023-02-05T11:13:28;9;8;
69123;PMS5003;56232;53.384;-2.732;2023-02-05T11:15:55;8;8;
69123;PMS5003;56232;53.384;-2.732;2023-02-05T11:18:26;7;7;
69123;PMS5003;56232;53.384;-2.732;2023-02-05T11:20:46;9;8;
69123;PMS5003;56232;53.384;-2.732;2023-02-05T11:23:15;9;7;
69123;PMS5003;56232;53.384;-2.732;2023-02-05T11:25:37;4;4;
69123;PMS5003;56232;53.384;-2.732;2023-02-05T11:28:14;6;5;
69123;PMS5003;56232;53.384;-2.732;2023-02-05T11:30:29;6;5;
69123;PMS5003;56232;53.384;-2.732;2023-02-05T11:32:54;8;7;
69123;PMS5003;56232;53.384;-2.732;2023-02-05T11:35:22;7;7;
69123;PMS5003;56232;53.384;-2.732;2023-02-05T11:37:46;4;4;
69123;PMS5003;56232;53.384;-2.732;2023-02-05T11:42:36;7;6;
69123;PMS5003;56232;53.384;-2.732;2023-02-05T11:45:02;7;5;
69123;PMS5003;56232;53.384;-2.732;2023-02-05T11:47:29;8;6;
69123;PMS5003;56232;53.384;-2.732;2023-02-05T11:49:53;7;7;
69123;PMS5003;56232;53.384;-2.732;2023-02-05T11:52:22;6;5;
69123;PMS5003;56232;53.384;-2.732;2023-02-05T11:54:45;3;3;
69123;PMS5003;56232;53.384;-2.732;2023-02-05T11:59:36;5;5;
69123;PMS5003;56232;53.384;-2.732;2023-02-05T12:04:27;5;4;
69123;PMS5003;56232;53.384;-2.732;2023-02-05T12:06:54;8;7;
69123;PMS5003;56232;53.384;-2.732;2023-02-05T12:09:19;6;4;
69123;PMS5003;56232;53.384;-2.732;2023-02-05T12:11:52;5;5;
69123;PMS5003;56232;53.384;-2.732;2023-02-05T12:14:10;7;7;
69123;PMS5003;56232;53.384;-2.732;2023-02-05T12:16:40;10;7;
69123;PMS5003;56232;53.384;-2.732;2023-02-05T12:19:02;7;5;
69123;PMS5003;56232;53.384;-2.732;2023-02-05T12:21:28;6;4;
69123;PMS5003;56232;53.384;-2.732;2023-02-05T12:23:56;4;3;
69123;PMS5003;56232;53.384;-2.732;2023-02-05T12:26:25;5;4;
69123;PMS5003;56232;53.384;-2.732;2023-02-05T12:28:44;5;5;
69123;PMS5003;56232;53.384;-2.732;2023-02-05T12:31:14;5;4;
69123;PMS5003;56232;53.384;-2.732;2023-02-05T12:33:39;4;3;
69123;PMS5003;56232;53.384;-2.732;2023-02-05T12:36:03;6;5;
69123;PMS5003;56232;53.384;-2.732;2023-02-05T12:38:27;5;5;
69123;PMS5003;56232;53.384;-2.732;2023-02-05T12:40:59;6;6;
69123;PMS5003;56232;53.384;-2.732;2023-02-05T12:43:22;3;3;
69123;PMS5003;56232;53.384;-2.732;2023-02-05T12:45:45;5;3;
69123;PMS5003;56232;53.384;-2.732;2023-02-05T12:48:12;3;3;
69123;PMS5003;56232;53.384;-2.732;2023-02-05T12:50:38;6;4;
69123;PMS5003;56232;53.384;-2.732;2023-02-05T12:53:03;3;3;
69123;PMS5003;56232;53.384;-2.732;2023-02-05T12:55:30;6;5;
69123;PMS5003;56232;53.384;-2.732;2023-02-05T12:57:51;6;6;
69123;PMS5003;56232;53.384;-2.732;2023-02-05T13:00:18;7;5;
69123;PMS5003;56232;53.384;-2.732;2023-02-05T13:02:46;7;4;
69123;PMS5003;56232;53.384;-2.732;2023-02-05T13:05:11;2;2;
69123;PMS5003;56232;53.384;-2.732;2023-02-05T13:07:34;2;2;
69123;PMS5003;56232;53.384;-2.732;2023-02-05T13:10:00;2;2;
69123;PMS5003;56232;53.384;-2.732;2023-02-05T13:12:26;3;2;
69123;PMS5003;56232;53.384;-2.732;2023-02-05T13:14:54;1;0;
69123;PMS5003;56232;53.384;-2.732;2023-02-05T13:17:22;3;3;
69123;PMS5003;56232;53.384;-2.732;2023-02-05T13:19:42;4;2;
69123;PMS5003;56232;53.384;-2.732;2023-02-05T13:22:14;3;2;
69123;PMS5003;56232;53.384;-2.732;2023-02-05T13:24:35;2;2;
69123;PMS5003;56232;53.384;-2.732;2023-02-05T13:26:59;4;3;
69123;PMS5003;56232;53.384;-2.732;2023-02-05T13:29:25;3;3;
69123;PMS5003;56232;53.384;-2.732;2023-02-05T13:31:50;4;3;
69123;PMS5003;56232;53.384;-2.732;2023-02-05T13:34:16;4;3;
69123;PMS5003;56232;53.384;-2.732;2023-02-05T13:39:12;5;5;
69123;PMS5003;56232;53.384;-2.732;2023-02-05T13:41:38;3;3;
69123;PMS5003;56232;53.384;-2.732;2023-02-05T13:48:55;1;1;
69123;PMS5003;56232;53.384;-2.732;2023-02-05T13:53:44;4;3;
69123;PMS5003;56232;53.384;-2.732;2023-02-05T13:58:32;5;4;
69123;PMS5003;56232;53.384;-2.732;2023-02-05T14:00:59;1;1;
69123;PMS5003;56232;53.384;-2.732;2023-02-05T14:03:25;2;2;
69123;PMS5003;56232;53.384;-2.732;2023-02-05T14:05:49;3;2;
69123;PMS5003;56232;53.384;-2.732;2023-02-05T14:08:21;3;3;
69123;PMS5003;56232;53.384;-2.732;2023-02-05T14:10:41;3;2;
69123;PMS5003;56232;53.384;-2.732;2023-02-05T14:13:08;3;3;
69123;PMS5003;56232;53.384;-2.732;2023-02-05T14:15:36;3;2;
69123;PMS5003;56232;53.384;-2.732;2023-02-05T14:17:58;5;4;
69123;PMS5003;56232;53.384;-2.732;2023-02-05T14:22:49;4;4;
69123;PMS5003;56232;53.384;-2.732;2023-02-05T14:27:42;2;2;
69123;PMS5003;56232;53.384;-2.732;2023-02-05T14:34:59;3;2;
69123;PMS5003;56232;53.384;-2.732;2023-02-05T14:37:25;5;3;
69123;PMS5003;56232;53.384;-2.732;2023-02-05T14:39:54;4;4;
69123;PMS5003;56232;53.384;-2.732;2023-02-05T14:42:17;3;2;
69123;PMS5003;56232;53.384;-2.732;2023-02-05T14:44:48;3;3;
69123;PMS5003;56232;53.384;-2.732;2023-02-05T14:47:07;5;4;
69123;PMS5003;56232;53.384;-2.732;2023-02-05T14:49:34;5;4;
69123;PMS5003;56232;53.384;-2.732;2023-02-05T14:51:59;7;5;
69123;PMS5003;56232;53.384;-2.732;2023-02-05T14:54:24;8;7;
69123;PMS5003;56232;53.384;-2.732;2023-02-05T14:56:50;8;7;
69123;PMS5003;56232;53.384;-2.732;2023-02-05T14:59:18;4;3;
69123;PMS5003;56232;53.384;-2.732;2023-02-05T15:01:41;7;7;
69123;PMS5003;56232;53.384;-2.732;2023-02-05T15:04:09;4;4;
69123;PMS5003;56232;53.384;-2.732;2023-02-05T15:06:36;6;5;
69123;PMS5003;56232;53.384;-2.732;2023-02-05T15:08:59;4;4;
69123;PMS5003;56232;53.384;-2.732;2023-02-05T15:11:26;3;3;
69123;PMS5003;56232;53.384;-2.732;2023-02-05T15:16:16;5;3;
69123;PMS5003;56232;53.384;-2.732;2023-02-05T15:18:40;10;7;
69123;PMS5003;56232;53.384;-2.732;2023-02-05T15:21:08;5;3;
69123;PMS5003;56232;53.384;-2.732;2023-02-05T15:23:33;4;3;
69123;PMS5003;56232;53.384;-2.732;2023-02-05T15:25:59;5;5;
69123;PMS5003;56232;53.384;-2.732;2023-02-05T15:28:31;3;3;
69123;PMS5003;56232;53.384;-2.732;2023-02-05T15:30:52;4;4;
69123;PMS5003;56232;53.384;-2.732;2023-02-05T15:33:15;5;4;
69123;PMS5003;56232;53.384;-2.732;2023-02-05T15:35:41;5;5;
69123;PMS5003;56232;53.384;-2.732;2023-02-05T15:38:08;9;7;
69123;PMS5003;56232;53.384;-2.732;2023-02-05T15:40:32;5;5;
69123;PMS5003;56232;53.384;-2.732;2023-02-05T15:42:58;4;4;
69123;PMS5003;56232;53.384;-2.732;2023-02-05T15:45:24;6;5;
69123;PMS5003;56232;53.384;-2.732;2023-02-05T15:50:15;4;4;
69123;PMS5003;56232;53.384;-2.732;2023-02-05T15:52:40;5;4;
69123;PMS5003;56232;53.384;-2.732;2023-02-05T15:55:08;6;6;
69123;PMS5003;56232;53.384;-2.732;2023-02-05T15:57:31;5;4;
69123;PMS5003;56232;53.384;-2.732;2023-02-05T16:00:03;8;6;
69123;PMS5003;56232;53.384;-2.732;2023-02-05T16:02:23;13;12;
69123;PMS5003;56232;53.384;-2.732;2023-02-05T16:04:52;6;6;
69123;PMS5003;56232;53.384;-2.732;2023-02-05T16:07:16;6;5;
69123;PMS5003;56232;53.384;-2.732;2023-02-05T16:09:44;7;6;
69123;PMS5003;56232;53.384;-2.732;2023-02-05T16:14:30;5;4;
69123;PMS5003;56232;53.384;-2.732;2023-02-05T16:16:58;8;5;
69123;PMS5003;56232;53.384;-2.732;2023-02-05T16:19:23;7;6;
69123;PMS5003;56232;53.384;-2.732;2023-02-05T16:21:48;5;4;
69123;PMS5003;56232;53.384;-2.732;2023-02-05T16:24:21;23;18;
69123;PMS5003;56232;53.384;-2.732;2023-02-05T16:26:40;8;7;
69123;PMS5003;56232;53.384;-2.732;2023-02-05T16:29:05;6;6;
69123;PMS5003;56232;53.384;-2.732;2023-02-05T16:31:31;10;8;
69123;PMS5003;56232;53.384;-2.732;2023-02-05T16:33:57;7;6;
69123;PMS5003;56232;53.384;-2.732;2023-02-05T16:36:22;10;8;
69123;PMS5003;56232;53.384;-2.732;2023-02-05T16:38:48;10;9;
69123;PMS5003;56232;53.384;-2.732;2023-02-05T16:41:16;9;7;
69123;PMS5003;56232;53.384;-2.732;2023-02-05T16:43:39;11;11;
69123;PMS5003;56232;53.384;-2.732;2023-02-05T16:48:30;13;12;
69123;PMS5003;56232;53.384;-2.732;2023-02-05T16:50:55;14;12;
69123;PMS5003;56232;53.384;-2.732;2023-02-05T16:53:21;26;24;
69123;PMS5003;56232;53.384;-2.732;2023-02-05T16:55:45;15;13;
69123;PMS5003;56232;53.384;-2.732;2023-02-05T16:58:13;17;14;
69123;PMS5003;56232;53.384;-2.732;2023-02-05T17:00:37;13;12;